Disclaimer

Please do not use the information listed here in-flight or in-navigation, as they are not provided to us by the airports but are provided by volunteers, so they might be outdated.

Search


Regions


Airport information page

Radio informations:
Tower (TWR) - 118.1 MHz
RDO - 11285 MHz
Automatic Terminal Information Service (ATIS) - 126.6 MHz
Approach (APP) - 119.6 MHz
CON - 125.9 MHz

Airport informations:
Latitude: 08° 28' 55.64" N
Longitude: 076° 55' 12.41" E
Elevation: 15 feet - 5 meters
Operating hours: Remarks
Operating agency: Civil government, landing fees and diplomatic clearance may be required
Timezone: UTC+5:30
Fuel: 80/87 octane gasoline, leaded, MIL-L-5572F (RED)

Jet fuel avaiable but type is unknown.

Runway information:
14/32 - 11148 x 150 feet< - >3398 x 46 meters

Recent METARs:
VOTV 211900Z 12003KT 4000 HZ SCT015 27/24 Q1010 NOSIG
VOTV 211930Z 09004KT 4000 HZ SCT015 27/24 Q1010 NOSIG
VOTV 212000Z 00000KT 4000 HZ SCT015 27/24 Q1010 NOSIG

Airport on the map: